L M Clayton Airport
KOLF : now visible

Airfield :











YOU CAN JOIN US ON...

 
LOGIN :

Register | Disclaimer

   EN    FR    IT 

 









Legend :    VFR   Marginal VFR   IFR   Intensive IFR   Very Intensive IFR
Visi :
Ceiling :
>= 8 km
>= 3000ft
5 to 8 km
1000 to 3000 ft
1500m to 5 km
500 to 1000 ft
800 to 1500m
200 to 500 ft
< 800m
< 200 ft
Symbols :   Thunderstorms  Fog  Heavy snow  Heavy precipitations  Wind > 20 kt






- Airport Elevation : 1986 ft


KOLF - L M Clayton

CURRENT METAR :
  • 190209Z AUTO 18007KT 4SM HZ CLR 26/M02 A2946 RMK AO2 T02561017

EXPIRED METARs :
  • 190153Z AUTO 18003KT 2 1/2SM HZ CLR 23/00 A2946 RMK AO2 VIS 2V4 SLP974 T02280000
  • 190053Z AUTO 22005KT 10SM CLR 31/M02 A2946 RMK AO2 SLP971 T03111017
  • 182353Z AUTO 22011G18KT 9SM CLR 34/M02 A2947 RMK AO2 SLP973 T03441022 10372 20294 58021

TAF KOLF
Valid from the 19 at 00:00 until the 20 at 00:00 UTC


182325Z 1900/1924 22012KT P6SM FEW160
FM190300 20015KT P6SM SCT150 WS020/25040KT
FM191200 26008KT P6SM FEW150 WS020/29045KT
FM191500 28012G22KT P6SM SCT150
KZLC FIR / North America



MET'MAP, your aeronautical weather chart ! - Copyright ORBIFLY December 2007 - Disclaimer

ORBIFLY MET'MAP TEAM :

Programming & Development : Alexandra Zaïnal
Concept & original design : Baudouin d'Aumeries
Assistance for programming : Marc-Olivier Méhu
Technical & hardware support : Manuel Goepfert

Contact : metmap@orbifly.com




SOURCES & CREDITS :

   NOAA       Earth
Advisory